sensor_id;sensor_type;location;lat;lon;timestamp;temperature;humidity
65040;HTU21D;51606;45.000;38.612;2023-04-25T06:25:32;14.19;76.55
65040;HTU21D;51606;45.000;38.612;2023-04-25T06:28:07;14.20;76.50
65040;HTU21D;51606;45.000;38.612;2023-04-25T06:30:34;14.21;76.45
65040;HTU21D;51606;45.000;38.612;2023-04-25T06:33:05;14.17;76.55
65040;HTU21D;51606;45.000;38.612;2023-04-25T06:35:35;14.13;76.63
65040;HTU21D;51606;45.000;38.612;2023-04-25T06:38:04;14.15;76.65
65040;HTU21D;51606;45.000;38.612;2023-04-25T06:40:32;14.24;76.57
65040;HTU21D;51606;45.000;38.612;2023-04-25T06:42:59;14.39;76.39
65040;HTU21D;51606;45.000;38.612;2023-04-25T06:45:44;14.57;76.11
65040;HTU21D;51606;45.000;38.612;2023-04-25T06:48:15;14.72;75.86
65040;HTU21D;51606;45.000;38.612;2023-04-25T06:50:42;14.83;75.68
65040;HTU21D;51606;45.000;38.612;2023-04-25T06:53:08;14.92;75.60
65040;HTU21D;51606;45.000;38.612;2023-04-25T06:55:43;14.99;75.53
65040;HTU21D;51606;45.000;38.612;2023-04-25T06:58:22;15.06;75.47
65040;HTU21D;51606;45.000;38.612;2023-04-25T07:01:03;15.11;75.43
65040;HTU21D;51606;45.000;38.612;2023-04-25T07:03:29;15.16;75.38
65040;HTU21D;51606;45.000;38.612;2023-04-25T07:06:00;15.18;75.38
65040;HTU21D;51606;45.000;38.612;2023-04-25T07:08:29;15.25;75.37
65040;HTU21D;51606;45.000;38.612;2023-04-25T07:10:57;15.36;75.28
65040;HTU21D;51606;45.000;38.612;2023-04-25T07:13:24;15.55;75.11
65040;HTU21D;51606;45.000;38.612;2023-04-25T07:15:53;15.95;74.86
65040;HTU21D;51606;45.000;38.612;2023-04-25T07:18:21;16.55;74.06
65040;HTU21D;51606;45.000;38.612;2023-04-25T07:20:51;16.96;73.51
65040;HTU21D;51606;45.000;38.612;2023-04-25T07:23:22;17.22;73.21
65040;HTU21D;51606;45.000;38.612;2023-04-25T07:25:51;17.41;72.99
65040;HTU21D;51606;45.000;38.612;2023-04-25T07:28:21;17.58;72.97
65040;HTU21D;51606;45.000;38.612;2023-04-25T07:30:47;17.74;72.79
65040;HTU21D;51606;45.000;38.612;2023-04-25T07:33:14;17.97;72.37
65040;HTU21D;51606;45.000;38.612;2023-04-25T07:35:40;18.18;71.96
65040;HTU21D;51606;45.000;38.612;2023-04-25T07:38:07;18.29;71.76
65040;HTU21D;51606;45.000;38.612;2023-04-25T07:40:34;18.47;71.74
65040;HTU21D;51606;45.000;38.612;2023-04-25T07:43:05;18.74;71.26
65040;HTU21D;51606;45.000;38.612;2023-04-25T07:45:43;19.00;70.71
65040;HTU21D;51606;45.000;38.612;2023-04-25T07:48:11;19.18;70.35
65040;HTU21D;51606;45.000;38.612;2023-04-25T07:50:40;19.32;70.17
65040;HTU21D;51606;45.000;38.612;2023-04-25T07:53:06;19.37;70.00
65040;HTU21D;51606;45.000;38.612;2023-04-25T07:55:43;19.43;69.71
65040;HTU21D;51606;45.000;38.612;2023-04-25T07:58:17;19.55;69.68
65040;HTU21D;51606;45.000;38.612;2023-04-25T08:00:49;19.69;69.47
65040;HTU21D;51606;45.000;38.612;2023-04-25T08:03:31;19.88;69.07
65040;HTU21D;51606;45.000;38.612;2023-04-25T08:06:01;20.01;68.67
65040;HTU21D;51606;45.000;38.612;2023-04-25T08:08:31;20.16;68.41
65040;HTU21D;51606;45.000;38.612;2023-04-25T08:11:01;20.31;67.88
65040;HTU21D;51606;45.000;38.612;2023-04-25T08:13:30;20.39;67.55
65040;HTU21D;51606;45.000;38.612;2023-04-25T08:15:59;20.46;67.61
65040;HTU21D;51606;45.000;38.612;2023-04-25T08:18:26;20.68;66.94
65040;HTU21D;51606;45.000;38.612;2023-04-25T08:20:55;20.89;66.74
65040;HTU21D;51606;45.000;38.612;2023-04-25T08:23:27;21.02;66.30
65040;HTU21D;51606;45.000;38.612;2023-04-25T08:26:03;21.18;66.00
65040;HTU21D;51606;45.000;38.612;2023-04-25T08:28:35;21.44;65.71
65040;HTU21D;51606;45.000;38.612;2023-04-25T08:31:02;21.70;65.54
65040;HTU21D;51606;45.000;38.612;2023-04-25T08:33:35;22.14;65.04
65040;HTU21D;51606;45.000;38.612;2023-04-25T08:36:16;22.76;64.15
65040;HTU21D;51606;45.000;38.612;2023-04-25T08:38:43;23.21;63.30
65040;HTU21D;51606;45.000;38.612;2023-04-25T08:41:11;23.42;63.09
65040;HTU21D;51606;45.000;38.612;2023-04-25T08:43:40;23.51;63.00
65040;HTU21D;51606;45.000;38.612;2023-04-25T08:46:09;23.40;63.16
65040;HTU21D;51606;45.000;38.612;2023-04-25T08:48:45;23.30;62.93
65040;HTU21D;51606;45.000;38.612;2023-04-25T08:51:44;23.37;62.70
65040;HTU21D;51606;45.000;38.612;2023-04-25T08:54:13;23.39;62.51
65040;HTU21D;51606;45.000;38.612;2023-04-25T08:56:48;23.45;62.22
65040;HTU21D;51606;45.000;38.612;2023-04-25T08:59:15;23.52;62.02
65040;HTU21D;51606;45.000;38.612;2023-04-25T09:01:46;23.53;61.86
65040;HTU21D;51606;45.000;38.612;2023-04-25T09:04:15;23.43;61.56
65040;HTU21D;51606;45.000;38.612;2023-04-25T09:06:42;23.27;61.79
65040;HTU21D;51606;45.000;38.612;2023-04-25T09:09:11;23.09;61.86
65040;HTU21D;51606;45.000;38.612;2023-04-25T09:11:38;22.79;62.02
65040;HTU21D;51606;45.000;38.612;2023-04-25T09:17:06;22.32;62.72
65040;HTU21D;51606;45.000;38.612;2023-04-25T09:19:46;22.17;62.62
65040;HTU21D;51606;45.000;38.612;2023-04-25T09:22:18;22.16;62.23
65040;HTU21D;51606;45.000;38.612;2023-04-25T09:24:47;22.32;62.04
65040;HTU21D;51606;45.000;38.612;2023-04-25T09:27:20;22.54;61.66
65040;HTU21D;51606;45.000;38.612;2023-04-25T09:30:02;22.67;61.21
65040;HTU21D;51606;45.000;38.612;2023-04-25T09:33:05;22.79;61.02
65040;HTU21D;51606;45.000;38.612;2023-04-25T09:35:40;22.73;60.90
65040;HTU21D;51606;45.000;38.612;2023-04-25T09:38:18;22.64;61.22
65040;HTU21D;51606;45.000;38.612;2023-04-25T09:40:55;22.63;61.22
65040;HTU21D;51606;45.000;38.612;2023-04-25T09:43:34;22.52;61.18
65040;HTU21D;51606;45.000;38.612;2023-04-25T09:46:10;22.42;61.03
65040;HTU21D;51606;45.000;38.612;2023-04-25T09:48:49;22.31;60.96
65040;HTU21D;51606;45.000;38.612;2023-04-25T09:51:17;22.28;61.02
65040;HTU21D;51606;45.000;38.612;2023-04-25T09:53:46;22.33;60.86
65040;HTU21D;51606;45.000;38.612;2023-04-25T09:56:23;22.31;60.90
65040;HTU21D;51606;45.000;38.612;2023-04-25T09:58:56;22.29;60.62
65040;HTU21D;51606;45.000;38.612;2023-04-25T10:01:23;22.48;60.40
65040;HTU21D;51606;45.000;38.612;2023-04-25T10:04:05;22.91;59.75
65040;HTU21D;51606;45.000;38.612;2023-04-25T10:06:48;23.30;58.84
65040;HTU21D;51606;45.000;38.612;2023-04-25T10:09:21;23.54;58.46
65040;HTU21D;51606;45.000;38.612;2023-04-25T10:11:52;23.62;58.44
65040;HTU21D;51606;45.000;38.612;2023-04-25T10:14:19;23.52;58.44
65040;HTU21D;51606;45.000;38.612;2023-04-25T10:16:47;23.32;58.13
65040;HTU21D;51606;45.000;38.612;2023-04-25T10:19:17;23.10;58.40
65040;HTU21D;51606;45.000;38.612;2023-04-25T10:24:31;22.63;58.96
65040;HTU21D;51606;45.000;38.612;2023-04-25T10:27:00;22.40;59.06
65040;HTU21D;51606;45.000;38.612;2023-04-25T10:29:27;22.22;58.96
65040;HTU21D;51606;45.000;38.612;2023-04-25T10:32:00;22.28;58.51
65040;HTU21D;51606;45.000;38.612;2023-04-25T10:34:43;22.38;57.68
65040;HTU21D;51606;45.000;38.612;2023-04-25T10:37:13;22.48;57.82
65040;HTU21D;51606;45.000;38.612;2023-04-25T10:39:40;22.56;57.34
65040;HTU21D;51606;45.000;38.612;2023-04-25T10:42:11;22.71;57.04
65040;HTU21D;51606;45.000;38.612;2023-04-25T10:44:38;22.83;57.15
65040;HTU21D;51606;45.000;38.612;2023-04-25T10:47:10;22.98;57.18
65040;HTU21D;51606;45.000;38.612;2023-04-25T10:49:38;23.25;56.69
65040;HTU21D;51606;45.000;38.612;2023-04-25T10:54:57;23.60;56.11
65040;HTU21D;51606;45.000;38.612;2023-04-25T10:57:42;23.76;55.22
65040;HTU21D;51606;45.000;38.612;2023-04-25T11:00:20;24.04;55.21
65040;HTU21D;51606;45.000;38.612;2023-04-25T11:02:57;24.21;55.06
65040;HTU21D;51606;45.000;38.612;2023-04-25T11:05:35;24.34;54.42
65040;HTU21D;51606;45.000;38.612;2023-04-25T11:08:11;24.38;54.36
65040;HTU21D;51606;45.000;38.612;2023-04-25T11:10:39;24.49;53.68
65040;HTU21D;51606;45.000;38.612;2023-04-25T11:13:06;24.38;54.22
65040;HTU21D;51606;45.000;38.612;2023-04-25T11:15:35;24.21;54.75
65040;HTU21D;51606;45.000;38.612;2023-04-25T11:18:01;24.03;55.23
65040;HTU21D;51606;45.000;38.612;2023-04-25T11:20:38;23.75;55.74
65040;HTU21D;51606;45.000;38.612;2023-04-25T11:23:04;23.56;56.18
65040;HTU21D;51606;45.000;38.612;2023-04-25T11:25:34;23.37;56.26
65040;HTU21D;51606;45.000;38.612;2023-04-25T11:28:01;23.15;56.35
65040;HTU21D;51606;45.000;38.612;2023-04-25T11:30:28;23.01;56.42
65040;HTU21D;51606;45.000;38.612;2023-04-25T11:32:56;22.90;56.35
65040;HTU21D;51606;45.000;38.612;2023-04-25T11:35:28;22.79;56.25
65040;HTU21D;51606;45.000;38.612;2023-04-25T11:37:55;22.72;56.39
65040;HTU21D;51606;45.000;38.612;2023-04-25T11:40:21;22.81;56.10
65040;HTU21D;51606;45.000;38.612;2023-04-25T11:42:47;22.82;55.92
65040;HTU21D;51606;45.000;38.612;2023-04-25T11:45:15;22.82;55.74
65040;HTU21D;51606;45.000;38.612;2023-04-25T11:47:42;22.84;55.71
65040;HTU21D;51606;45.000;38.612;2023-04-25T11:50:14;22.96;55.45
65040;HTU21D;51606;45.000;38.612;2023-04-25T11:52:45;23.06;55.28
65040;HTU21D;51606;45.000;38.612;2023-04-25T11:55:17;23.16;55.10
65040;HTU21D;51606;45.000;38.612;2023-04-25T11:57:46;23.20;54.92
65040;HTU21D;51606;45.000;38.612;2023-04-25T12:00:20;23.18;54.96
65040;HTU21D;51606;45.000;38.612;2023-04-25T12:02:55;23.11;55.06
65040;HTU21D;51606;45.000;38.612;2023-04-25T12:05:30;23.00;55.05
65040;HTU21D;51606;45.000;38.612;2023-04-25T12:08:14;22.92;55.31
65040;HTU21D;51606;45.000;38.612;2023-04-25T12:10:42;22.90;55.40
65040;HTU21D;51606;45.000;38.612;2023-04-25T12:13:23;22.86;55.25
65040;HTU21D;51606;45.000;38.612;2023-04-25T12:15:55;22.72;55.47
65040;HTU21D;51606;45.000;38.612;2023-04-25T12:18:25;22.62;55.59
65040;HTU21D;51606;45.000;38.612;2023-04-25T12:20:54;22.56;55.70
65040;HTU21D;51606;45.000;38.612;2023-04-25T12:23:27;22.44;55.71
65040;HTU21D;51606;45.000;38.612;2023-04-25T12:36:55;22.03;56.19
65040;HTU21D;51606;45.000;38.612;2023-04-25T12:39:24;21.92;56.19
65040;HTU21D;51606;45.000;38.612;2023-04-25T12:41:51;21.82;56.24
65040;HTU21D;51606;45.000;38.612;2023-04-25T12:44:20;21.69;56.36
65040;HTU21D;51606;45.000;38.612;2023-04-25T12:46:47;21.60;56.32
65040;HTU21D;51606;45.000;38.612;2023-04-25T12:49:14;21.53;56.29
65040;HTU21D;51606;45.000;38.612;2023-04-25T12:51:40;21.52;56.34
65040;HTU21D;51606;45.000;38.612;2023-04-25T12:54:07;21.46;56.35
65040;HTU21D;51606;45.000;38.612;2023-04-25T12:56:34;21.40;56.42
65040;HTU21D;51606;45.000;38.612;2023-04-25T12:59:03;21.39;56.32
65040;HTU21D;51606;45.000;38.612;2023-04-25T13:01:30;21.31;56.13
65040;HTU21D;51606;45.000;38.612;2023-04-25T13:04:02;21.30;56.06
65040;HTU21D;51606;45.000;38.612;2023-04-25T13:06:31;21.24;56.13
65040;HTU21D;51606;45.000;38.612;2023-04-25T13:08:57;21.19;56.29
65040;HTU21D;51606;45.000;38.612;2023-04-25T13:11:24;21.16;56.31
65040;HTU21D;51606;45.000;38.612;2023-04-25T13:13:50;21.13;56.33
65040;HTU21D;51606;45.000;38.612;2023-04-25T13:16:17;21.07;56.38
65040;HTU21D;51606;45.000;38.612;2023-04-25T13:18:50;21.07;56.31
65040;HTU21D;51606;45.000;38.612;2023-04-25T13:21:16;21.09;56.26
65040;HTU21D;51606;45.000;38.612;2023-04-25T13:23:43;21.08;56.20
65040;HTU21D;51606;45.000;38.612;2023-04-25T13:26:10;21.07;56.26
65040;HTU21D;51606;45.000;38.612;2023-04-25T13:28:36;21.05;56.24
65040;HTU21D;51606;45.000;38.612;2023-04-25T13:31:07;21.03;56.23
65040;HTU21D;51606;45.000;38.612;2023-04-25T13:33:36;20.95;56.23
65040;HTU21D;51606;45.000;38.612;2023-04-25T13:36:05;20.88;56.34
65040;HTU21D;51606;45.000;38.612;2023-04-25T13:38:37;20.79;56.40
65040;HTU21D;51606;45.000;38.612;2023-04-25T13:41:07;20.66;56.59
65040;HTU21D;51606;45.000;38.612;2023-04-25T13:43:39;20.54;56.84
65040;HTU21D;51606;45.000;38.612;2023-04-25T13:46:15;20.42;56.88
65040;HTU21D;51606;45.000;38.612;2023-04-25T13:48:42;20.33;57.00
65040;HTU21D;51606;45.000;38.612;2023-04-25T13:51:13;20.24;57.03
65040;HTU21D;51606;45.000;38.612;2023-04-25T13:53:39;20.12;57.12
65040;HTU21D;51606;45.000;38.612;2023-04-25T13:56:06;20.05;57.19
65040;HTU21D;51606;45.000;38.612;2023-04-25T13:58:32;19.96;57.22
65040;HTU21D;51606;45.000;38.612;2023-04-25T14:00:59;19.83;57.36
65040;HTU21D;51606;45.000;38.612;2023-04-25T14:03:25;19.74;57.48
65040;HTU21D;51606;45.000;38.612;2023-04-25T14:05:51;19.62;57.61
65040;HTU21D;51606;45.000;38.612;2023-04-25T14:08:18;19.55;57.69
65040;HTU21D;51606;45.000;38.612;2023-04-25T14:10:44;19.45;57.88
65040;HTU21D;51606;45.000;38.612;2023-04-25T14:13:11;19.36;57.96
65040;HTU21D;51606;45.000;38.612;2023-04-25T14:15:41;19.25;58.09
65040;HTU21D;51606;45.000;38.612;2023-04-25T14:18:07;19.15;58.18
65040;HTU21D;51606;45.000;38.612;2023-04-25T14:20:34;19.08;58.25
65040;HTU21D;51606;45.000;38.612;2023-04-25T14:23:00;18.98;58.37
65040;HTU21D;51606;45.000;38.612;2023-04-25T14:25:27;18.89;58.45
65040;HTU21D;51606;45.000;38.612;2023-04-25T14:27:53;18.81;58.51
65040;HTU21D;51606;45.000;38.612;2023-04-25T14:30:24;18.70;58.59
65040;HTU21D;51606;45.000;38.612;2023-04-25T14:32:54;18.58;58.74
65040;HTU21D;51606;45.000;38.612;2023-04-25T14:35:43;18.47;58.87
65040;HTU21D;51606;45.000;38.612;2023-04-25T14:38:10;18.34;59.00
65040;HTU21D;51606;45.000;38.612;2023-04-25T14:40:36;18.22;59.10
65040;HTU21D;51606;45.000;38.612;2023-04-25T14:43:04;18.12;59.19
65040;HTU21D;51606;45.000;38.612;2023-04-25T14:45:30;18.05;59.26
65040;HTU21D;51606;45.000;38.612;2023-04-25T14:47:57;17.97;59.33
65040;HTU21D;51606;45.000;38.612;2023-04-25T14:50:23;17.87;59.41
65040;HTU21D;51606;45.000;38.612;2023-04-25T14:52:49;17.76;59.54
65040;HTU21D;51606;45.000;38.612;2023-04-25T14:55:19;17.66;59.67
65040;HTU21D;51606;45.000;38.612;2023-04-25T14:57:45;17.59;59.77
65040;HTU21D;51606;45.000;38.612;2023-04-25T15:00:15;17.48;59.86
65040;HTU21D;51606;45.000;38.612;2023-04-25T15:02:42;17.38;59.99
65040;HTU21D;51606;45.000;38.612;2023-04-25T15:05:08;17.29;60.06
65040;HTU21D;51606;45.000;38.612;2023-04-25T15:07:35;17.18;60.18
65040;HTU21D;51606;45.000;38.612;2023-04-25T15:10:02;17.06;60.33
65040;HTU21D;51606;45.000;38.612;2023-04-25T15:12:52;16.90;60.49
65040;HTU21D;51606;45.000;38.612;2023-04-25T15:15:21;16.78;60.65
65040;HTU21D;51606;45.000;38.612;2023-04-25T15:17:49;16.64;60.83
65040;HTU21D;51606;45.000;38.612;2023-04-25T15:20:26;16.50;60.97
65040;HTU21D;51606;45.000;38.612;2023-04-25T15:22:53;16.36;61.12
65040;HTU21D;51606;45.000;38.612;2023-04-25T15:25:20;16.25;61.25
65040;HTU21D;51606;45.000;38.612;2023-04-25T15:27:47;16.12;61.37
65040;HTU21D;51606;45.000;38.612;2023-04-25T15:30:15;15.98;61.50
65040;HTU21D;51606;45.000;38.612;2023-04-25T15:32:44;15.87;61.63
65040;HTU21D;51606;45.000;38.612;2023-04-25T15:35:16;15.71;61.77
65040;HTU21D;51606;45.000;38.612;2023-04-25T15:37:47;15.53;61.93
65040;HTU21D;51606;45.000;38.612;2023-04-25T15:40:16;15.38;62.11
65040;HTU21D;51606;45.000;38.612;2023-04-25T15:42:57;15.19;62.31
65040;HTU21D;51606;45.000;38.612;2023-04-25T15:45:27;15.06;62.45
65040;HTU21D;51606;45.000;38.612;2023-04-25T15:47:57;14.91;62.59
65040;HTU21D;51606;45.000;38.612;2023-04-25T15:50:27;14.77;62.73
65040;HTU21D;51606;45.000;38.612;2023-04-25T15:52:53;14.62;62.84
65040;HTU21D;51606;45.000;38.612;2023-04-25T15:55:36;14.47;62.95
65040;HTU21D;51606;45.000;38.612;2023-04-25T15:58:02;14.32;63.11
65040;HTU21D;51606;45.000;38.612;2023-04-25T16:00:32;14.14;63.29
65040;HTU21D;51606;45.000;38.612;2023-04-25T16:03:02;13.97;63.48
65040;HTU21D;51606;45.000;38.612;2023-04-25T16:05:32;13.82;63.64
65040;HTU21D;51606;45.000;38.612;2023-04-25T16:08:01;13.67;63.82
65040;HTU21D;51606;45.000;38.612;2023-04-25T16:10:29;13.48;63.99
65040;HTU21D;51606;45.000;38.612;2023-04-25T16:12:56;13.33;64.16
65040;HTU21D;51606;45.000;38.612;2023-04-25T16:15:24;13.17;64.32
65040;HTU21D;51606;45.000;38.612;2023-04-25T16:17:56;13.01;64.47
65040;HTU21D;51606;45.000;38.612;2023-04-25T16:20:23;12.85;64.62
65040;HTU21D;51606;45.000;38.612;2023-04-25T16:22:52;12.71;64.82
65040;HTU21D;51606;45.000;38.612;2023-04-25T16:25:18;12.53;64.96
65040;HTU21D;51606;45.000;38.612;2023-04-25T16:27:47;12.38;65.09
65040;HTU21D;51606;45.000;38.612;2023-04-25T16:30:13;12.23;65.22
65040;HTU21D;51606;45.000;38.612;2023-04-25T16:32:48;12.08;65.36
65040;HTU21D;51606;45.000;38.612;2023-04-25T16:35:14;11.92;65.50
65040;HTU21D;51606;45.000;38.612;2023-04-25T16:37:41;11.82;65.65
65040;HTU21D;51606;45.000;38.612;2023-04-25T16:40:16;11.75;65.66
65040;HTU21D;51606;45.000;38.612;2023-04-25T16:42:46;11.71;65.59
65040;HTU21D;51606;45.000;38.612;2023-04-25T16:45:13;11.61;65.56
65040;HTU21D;51606;45.000;38.612;2023-04-25T16:47:42;11.53;65.61
65040;HTU21D;51606;45.000;38.612;2023-04-25T16:50:14;11.47;65.64
65040;HTU21D;51606;45.000;38.612;2023-04-25T16:52:47;11.38;65.63
65040;HTU21D;51606;45.000;38.612;2023-04-25T16:55:13;11.31;65.67
65040;HTU21D;51606;45.000;38.612;2023-04-25T16:57:40;11.23;65.72
65040;HTU21D;51606;45.000;38.612;2023-04-25T17:00:07;11.11;65.81
65040;HTU21D;51606;45.000;38.612;2023-04-25T17:02:38;10.99;65.94
65040;HTU21D;51606;45.000;38.612;2023-04-25T17:05:05;10.87;66.11
65040;HTU21D;51606;45.000;38.612;2023-04-25T17:07:36;10.74;66.28
65040;HTU21D;51606;45.000;38.612;2023-04-25T17:10:03;10.62;66.44
65040;HTU21D;51606;45.000;38.612;2023-04-25T17:12:30;10.51;66.59
65040;HTU21D;51606;45.000;38.612;2023-04-25T17:14:56;10.40;66.68
65040;HTU21D;51606;45.000;38.612;2023-04-25T17:17:27;10.30;66.76
65040;HTU21D;51606;45.000;38.612;2023-04-25T17:19:53;10.24;66.86
65040;HTU21D;51606;45.000;38.612;2023-04-25T17:22:20;10.18;66.96
65040;HTU21D;51606;45.000;38.612;2023-04-25T17:24:47;10.13;67.00
65040;HTU21D;51606;45.000;38.612;2023-04-25T17:27:13;10.09;67.04
65040;HTU21D;51606;45.000;38.612;2023-04-25T17:29:39;10.01;67.09
65040;HTU21D;51606;45.000;38.612;2023-04-25T17:32:06;9.95;67.18
65040;HTU21D;51606;45.000;38.612;2023-04-25T17:34:32;9.90;67.20
65040;HTU21D;51606;45.000;38.612;2023-04-25T17:37:02;9.85;67.27
65040;HTU21D;51606;45.000;38.612;2023-04-25T17:39:31;9.76;67.33
65040;HTU21D;51606;45.000;38.612;2023-04-25T17:41:58;9.68;67.39
65040;HTU21D;51606;45.000;38.612;2023-04-25T17:44:29;9.61;67.52
65040;HTU21D;51606;45.000;38.612;2023-04-25T17:46:56;9.51;67.62
65040;HTU21D;51606;45.000;38.612;2023-04-25T17:49:22;9.40;67.74
65040;HTU21D;51606;45.000;38.612;2023-04-25T17:51:55;9.23;67.96
65040;HTU21D;51606;45.000;38.612;2023-04-25T17:54:21;9.07;68.20
65040;HTU21D;51606;45.000;38.612;2023-04-25T17:56:56;8.93;68.41
65040;HTU21D;51606;45.000;38.612;2023-04-25T17:59:23;8.86;68.47
65040;HTU21D;51606;45.000;38.612;2023-04-25T18:01:50;8.78;68.47
65040;HTU21D;51606;45.000;38.612;2023-04-25T18:04:16;8.74;68.50
65040;HTU21D;51606;45.000;38.612;2023-04-25T18:06:43;8.71;68.53
65040;HTU21D;51606;45.000;38.612;2023-04-25T18:09:10;8.67;68.49
65040;HTU21D;51606;45.000;38.612;2023-04-25T18:11:43;8.64;68.50
65040;HTU21D;51606;45.000;38.612;2023-04-25T18:14:11;8.55;68.59
65040;HTU21D;51606;45.000;38.612;2023-04-25T18:16:50;8.47;68.74
65040;HTU21D;51606;45.000;38.612;2023-04-25T18:19:21;8.38;68.79
65040;HTU21D;51606;45.000;38.612;2023-04-25T18:21:52;8.31;68.87
65040;HTU21D;51606;45.000;38.612;2023-04-25T18:24:24;8.26;68.87
65040;HTU21D;51606;45.000;38.612;2023-04-25T18:27:00;8.20;68.96
65040;HTU21D;51606;45.000;38.612;2023-04-25T18:29:31;8.18;68.94
65040;HTU21D;51606;45.000;38.612;2023-04-25T18:31:57;8.17;68.87
65040;HTU21D;51606;45.000;38.612;2023-04-25T19:15:42;7.14;69.56
65040;HTU21D;51606;45.000;38.612;2023-04-25T19:18:10;7.01;69.71
65040;HTU21D;51606;45.000;38.612;2023-04-25T19:20:37;6.86;70.03
65040;HTU21D;51606;45.000;38.612;2023-04-25T19:23:06;6.74;70.23
65040;HTU21D;51606;45.000;38.612;2023-04-25T19:25:34;6.67;70.36
65040;HTU21D;51606;45.000;38.612;2023-04-25T19:28:03;6.64;70.32
65040;HTU21D;51606;45.000;38.612;2023-04-25T19:30:30;6.61;70.32
65040;HTU21D;51606;45.000;38.612;2023-04-25T19:32:56;6.61;70.29
65040;HTU21D;51606;45.000;38.612;2023-04-25T19:35:23;6.63;70.27
65040;HTU21D;51606;45.000;38.612;2023-04-25T19:37:50;6.65;70.21
